Time;durP1;ratioP1;P1;durP2;ratioP2;P2;SDS_P1;SDS_P2;PMS_P1;PMS_P2;Temp;Humidity;BMP_temperature;BMP_pressure;BME280_temperature;BME280_humidity;BME280_pressure;Samples;Min_cycle;Max_cycle;Signal;HPM_P1;HPM_P2
2021/01/13 00:00:06;;;;;;;;;;;;;;;1.93;72.41;98664.33;123037;1103;106125;-71
2021/01/13 00:02:32;;;;;;;;;;;;;;;1.92;72.11;98665.27;123068;1103;109272;-72
2021/01/13 00:04:57;;;;;;;;;;;;;;;1.91;72.43;98667.09;123024;1103;104647;-72
2021/01/13 00:07:22;;;;;;;;;;;;;;;1.92;72.20;98668.73;123145;1103;104629;-72
2021/01/13 00:09:48;;;;;;;;;;;;;;;1.90;72.24;98660.14;123031;1103;104610;-73
2021/01/13 00:12:14;;;;;;;;;;;;;;;1.89;72.70;98669.02;123034;1103;104638;-73
2021/01/13 00:14:39;;;;;;;;;;;;;;;1.88;72.31;98671.78;123008;1106;104663;-71
2021/01/13 00:17:06;;;;;;;;;;;;;;;1.87;71.86;98672.77;123076;1103;105021;-71
2021/01/13 00:19:32;;;;;;;;;;;;;;;1.87;72.79;98670.95;123071;1104;108475;-72
2021/01/13 00:21:57;;;;;;;;;;;;;;;1.87;71.99;98676.22;123044;1103;104593;-72
2021/01/13 00:24:26;;;;;;;;;;;;;;;1.88;72.14;98677.86;123186;1103;104673;-71
2021/01/13 00:26:58;;;;;;;;;;;;;;;1.87;72.58;98670.95;123014;1103;104688;-71
2021/01/13 00:29:23;;;;;;;;;;;;;;;1.83;72.13;98679.23;122955;1102;104596;-71
2021/01/13 00:31:49;;;;;;;;;;;;;;;1.84;72.76;98683.55;122948;1103;104637;-71
2021/01/13 00:34:15;;;;;;;;;;;;;;;1.82;72.29;98688.94;123026;1103;104596;-71
2021/01/13 00:36:41;;;;;;;;;;;;;;;1.77;73.26;98683.24;122940;1103;104948;-72
2021/01/13 00:39:07;;;;;;;;;;;;;;;1.78;72.13;98686.73;123054;1103;104708;-72
2021/01/13 00:41:32;;;;;;;;;;;;;;;1.80;72.46;98690.87;122980;1107;104696;-71
2021/01/13 00:43:58;;;;;;;;;;;;;;;1.77;73.10;98706.91;122993;1103;104616;-71
2021/01/13 00:46:24;;;;;;;;;;;;;;;1.78;72.44;98691.98;123121;1102;104657;-71
2021/01/13 00:48:49;;;;;;;;;;;;;;;1.73;73.49;98705.52;122994;1103;104625;-71
2021/01/13 00:51:15;;;;;;;;;;;;;;;1.69;72.24;98690.98;123081;1103;104574;-70
2021/01/13 00:53:41;;;;;;;;;;;;;;;1.68;73.30;98694.59;122857;1103;104597;-71
2021/01/13 00:56:06;;;;;;;;;;;;;;;1.68;73.45;98700.68;122944;1103;104666;-71
2021/01/13 00:58:32;;;;;;;;;;;;;;;1.71;73.00;98704.83;123116;1103;104609;-70
2021/01/13 01:00:58;;;;;;;;;;;;;;;1.70;72.64;98705.81;122919;1103;104596;-70
2021/01/13 01:03:24;;;;;;;;;;;;;;;1.64;73.86;98701.92;122947;1103;104592;-70
2021/01/13 01:05:49;;;;;;;;;;;;;;;1.57;73.06;98700.78;123035;1107;105047;-70
2021/01/13 01:08:15;;;;;;;;;;;;;;;1.50;73.04;98715.42;122922;1103;104600;-71
2021/01/13 01:10:41;;;;;;;;;;;;;;;1.46;74.15;98720.11;122918;1103;104663;-71
2021/01/13 01:13:07;;;;;;;;;;;;;;;1.43;74.28;98704.62;122909;1106;104603;-71
2021/01/13 01:15:33;;;;;;;;;;;;;;;1.36;74.11;98730.58;122988;1103;104596;-71
2021/01/13 01:17:58;;;;;;;;;;;;;;;1.33;73.94;98730.05;123137;1103;104656;-71
2021/01/13 01:20:24;;;;;;;;;;;;;;;1.32;74.17;98733.62;122908;1107;104590;-72
2021/01/13 01:22:54;;;;;;;;;;;;;;;1.33;74.29;98737.92;123035;1103;104570;-71
2021/01/13 01:25:20;;;;;;;;;;;;;;;1.32;74.93;98741.50;123012;1104;104663;-72
2021/01/13 01:27:53;;;;;;;;;;;;;;;1.30;74.88;98743.43;123000;1103;104599;-72
2021/01/13 01:30:19;;;;;;;;;;;;;;;1.26;74.93;98760.42;123009;1107;108311;-72
2021/01/13 01:32:45;;;;;;;;;;;;;;;1.21;74.44;98755.55;122968;1103;104587;-72
2021/01/13 01:35:11;;;;;;;;;;;;;;;1.17;73.93;98760.25;123056;1103;104663;-72
2021/01/13 01:37:37;;;;;;;;;;;;;;;1.12;74.29;98762.42;123003;1103;104645;-72
2021/01/13 01:40:07;;;;;;;;;;;;;;;1.08;74.41;98763.66;123006;1103;104666;-72
2021/01/13 01:42:33;;;;;;;;;;;;;;;1.04;74.87;98764.88;123085;1103;108410;-72
2021/01/13 01:44:58;;;;;;;;;;;;;;;0.97;74.58;98767.17;122994;1104;104593;-72
2021/01/13 01:47:44;;;;;;;;;;;;;;;0.95;74.60;98774.34;123050;1103;104610;-72
2021/01/13 01:50:10;;;;;;;;;;;;;;;0.96;74.94;98785.67;122752;1104;104714;-71
2021/01/13 01:52:40;;;;;;;;;;;;;;;0.94;74.36;98782.34;122963;1103;104600;-71
2021/01/13 01:55:09;;;;;;;;;;;;;;;0.90;74.73;98792.27;122950;1103;108364;-71
2021/01/13 01:57:35;;;;;;;;;;;;;;;0.88;74.24;98794.19;122869;1103;104594;-71
2021/01/13 02:00:01;;;;;;;;;;;;;;;0.85;74.53;98793.61;122982;1103;104619;-71
2021/01/13 02:02:33;;;;;;;;;;;;;;;0.84;74.44;98791.95;122885;1104;104609;-70
2021/01/13 02:05:01;;;;;;;;;;;;;;;0.78;74.10;98794.13;122843;1108;109275;-71
2021/01/13 02:07:31;;;;;;;;;;;;;;;0.76;74.12;98795.22;122931;1103;104592;-71
2021/01/13 02:09:57;;;;;;;;;;;;;;;0.74;74.07;98802.39;123052;1103;105014;-70
2021/01/13 02:12:27;;;;;;;;;;;;;;;0.73;74.42;98805.96;122987;1102;104532;-70
2021/01/13 02:14:52;;;;;;;;;;;;;;;0.72;73.77;98797.27;122927;1106;108373;-70
2021/01/13 02:17:23;;;;;;;;;;;;;;;0.72;73.87;98801.69;122868;1103;104580;-72
2021/01/13 02:19:48;;;;;;;;;;;;;;;0.70;73.35;98796.55;122898;1103;104641;-72
2021/01/13 02:22:13;;;;;;;;;;;;;;;0.70;73.48;98806.23;122952;1102;104628;-71
2021/01/13 02:24:45;;;;;;;;;;;;;;;0.67;72.95;98812.55;123075;1103;104570;-71
2021/01/13 02:27:11;;;;;;;;;;;;;;;0.65;72.67;98819.72;122967;1103;108331;-71
2021/01/13 02:29:36;;;;;;;;;;;;;;;0.60;72.01;98816.66;122962;1104;104663;-71
2021/01/13 02:32:08;;;;;;;;;;;;;;;0.57;72.12;98832.64;123127;1106;104692;-71
2021/01/13 02:34:42;;;;;;;;;;;;;;;0.52;72.46;98830.40;122958;1103;104612;-71
2021/01/13 02:37:19;;;;;;;;;;;;;;;0.54;71.99;98832.88;122971;1103;104596;-71
2021/01/13 02:39:45;;;;;;;;;;;;;;;0.54;72.11;98835.50;122972;1107;108338;-72
2021/01/13 02:42:13;;;;;;;;;;;;;;;0.52;71.74;98843.52;122976;1106;104570;-72
2021/01/13 02:44:43;;;;;;;;;;;;;;;0.51;71.79;98848.89;123011;1104;104609;-73
2021/01/13 02:47:15;;;;;;;;;;;;;;;0.48;72.07;98849.98;122920;1103;104574;-72
2021/01/13 02:49:49;;;;;;;;;;;;;;;0.52;72.17;98856.64;122929;1106;108483;-71
2021/01/13 02:52:18;;;;;;;;;;;;;;;0.52;72.05;98861.04;122989;1106;104612;-72
2021/01/13 02:54:52;;;;;;;;;;;;;;;0.53;72.12;98867.97;123036;1103;104711;-72
2021/01/13 02:57:18;;;;;;;;;;;;;;;0.56;72.12;98857.23;122988;1108;104649;-72
2021/01/13 02:59:44;;;;;;;;;;;;;;;0.57;72.00;98858.89;123061;1101;104596;-72
2021/01/13 03:02:10;;;;;;;;;;;;;;;0.59;72.40;98851.72;123021;1103;104577;-72
2021/01/13 03:04:37;;;;;;;;;;;;;;;0.58;71.68;98855.32;123033;1103;104584;-72
2021/01/13 03:07:23;;;;;;;;;;;;;;;0.56;71.61;98851.98;123002;1106;104726;-74
2021/01/13 03:09:49;;;;;;;;;;;;;;;0.57;71.94;98861.52;123024;1103;104596;-73
2021/01/13 03:12:25;;;;;;;;;;;;;;;0.58;71.95;98863.19;123019;1103;104577;-72
2021/01/13 03:14:52;;;;;;;;;;;;;;;0.62;71.76;98861.98;122993;1106;104570;-74
2021/01/13 03:17:33;;;;;;;;;;;;;;;0.62;71.98;98867.23;123026;1102;104597;-74
2021/01/13 03:20:17;;;;;;;;;;;;;;;0.66;71.15;98873.90;123013;1102;104647;-74
2021/01/13 03:23:05;;;;;;;;;;;;;;;0.58;70.44;98876.31;123027;1106;108387;-74
2021/01/13 03:25:51;;;;;;;;;;;;;;;0.46;70.64;98872.86;122996;1103;104594;-74
2021/01/13 03:28:18;;;;;;;;;;;;;;;0.41;70.67;98866.34;123022;1102;104692;-73
2021/01/13 03:30:48;;;;;;;;;;;;;;;0.35;70.25;98875.53;122957;1103;104596;-73
2021/01/13 03:33:34;;;;;;;;;;;;;;;0.30;70.57;98867.19;122954;1105;108767;-73
2021/01/13 03:36:08;;;;;;;;;;;;;;;0.27;70.67;98863.03;122883;1103;104571;-73
2021/01/13 03:38:34;;;;;;;;;;;;;;;0.23;70.59;98864.20;122960;1106;104580;-73
2021/01/13 03:41:04;;;;;;;;;;;;;;;0.19;70.74;98870.65;122971;1103;104609;-72
2021/01/13 03:43:39;;;;;;;;;;;;;;;0.21;70.70;98873.98;122964;1108;108466;-74
2021/01/13 03:46:06;;;;;;;;;;;;;;;0.18;70.61;98874.23;123034;1103;104982;-72
2021/01/13 03:48:38;;;;;;;;;;;;;;;0.16;70.89;98882.23;123025;1108;104656;-72
2021/01/13 03:51:05;;;;;;;;;;;;;;;0.19;70.99;98868.02;122971;1103;104612;-73
2021/01/13 03:53:39;;;;;;;;;;;;;;;0.21;71.21;98878.40;122966;1103;104567;-72
2021/01/13 03:56:06;;;;;;;;;;;;;;;0.22;71.06;98874.84;122982;1103;106205;-71
2021/01/13 03:58:50;;;;;;;;;;;;;;;0.24;70.91;98879.00;123050;1107;104663;-72
2021/01/13 04:01:22;;;;;;;;;;;;;;;0.25;71.14;98875.44;123041;1103;104708;-72
2021/01/13 04:03:54;;;;;;;;;;;;;;;0.30;70.77;98883.75;122941;1103;108374;-72
2021/01/13 04:06:19;;;;;;;;;;;;;;;0.31;71.06;98882.81;122982;1104;104682;-72
2021/01/13 04:08:46;;;;;;;;;;;;;;;0.33;70.84;98883.52;123009;1103;104648;-71
2021/01/13 04:11:12;;;;;;;;;;;;;;;0.35;71.21;98891.28;123000;1103;104602;-71
2021/01/13 04:13:39;;;;;;;;;;;;;;;0.37;70.53;98895.44;123132;1103;104660;-72
2021/01/13 04:16:05;;;;;;;;;;;;;;;0.39;71.04;98888.27;123088;1103;104682;-72
2021/01/13 04:18:31;;;;;;;;;;;;;;;0.43;70.60;98890.67;123166;1103;104648;-72
2021/01/13 04:20:56;;;;;;;;;;;;;;;0.45;70.79;98894.00;123014;1103;105034;-70
2021/01/13 04:23:22;;;;;;;;;;;;;;;0.46;70.98;98893.03;122966;1103;104596;-72
2021/01/13 04:25:48;;;;;;;;;;;;;;;0.47;70.98;98902.59;123041;1101;104570;-71
2021/01/13 04:28:13;;;;;;;;;;;;;;;0.47;70.65;98900.78;122955;1104;105014;-71
2021/01/13 04:30:39;;;;;;;;;;;;;;;0.47;71.45;98898.16;123072;1103;104599;-72
2021/01/13 04:33:06;;;;;;;;;;;;;;;0.52;71.27;98901.27;122993;1103;108351;-71
2021/01/13 04:35:32;;;;;;;;;;;;;;;0.57;70.54;98908.76;122969;1104;104641;-73
2021/01/13 04:37:57;;;;;;;;;;;;;;;0.60;70.88;98908.52;123025;1103;104612;-71
2021/01/13 04:40:23;;;;;;;;;;;;;;;0.63;70.94;98908.26;122997;1103;104636;-72
2021/01/13 04:42:58;;;;;;;;;;;;;;;0.67;71.51;98908.85;122938;1103;104634;-71
2021/01/13 04:45:34;;;;;;;;;;;;;;;0.72;70.76;98907.52;122942;1103;108393;-71
2021/01/13 04:48:07;;;;;;;;;;;;;;;0.75;71.04;98903.81;123007;1103;104625;-73
2021/01/13 04:50:34;;;;;;;;;;;;;;;0.73;70.67;98903.95;123003;1103;104590;-71
2021/01/13 04:53:03;;;;;;;;;;;;;;;0.75;71.02;98914.31;123020;1103;104663;-72
2021/01/13 04:55:28;;;;;;;;;;;;;;;0.73;71.23;98919.71;122987;1103;108829;-72
2021/01/13 04:58:13;;;;;;;;;;;;;;;0.74;70.96;98918.73;122945;1103;104693;-71
2021/01/13 05:00:45;;;;;;;;;;;;;;;0.74;70.85;98918.73;122997;1103;104593;-72
2021/01/13 05:03:29;;;;;;;;;;;;;;;0.74;71.25;98929.23;122972;1108;104692;-71
2021/01/13 05:06:24;;;;;;;;;;;;;;;0.73;70.97;98918.85;123001;1104;108332;-71
2021/01/13 05:09:06;;;;;;;;;;;;;;;0.73;71.07;98917.08;122841;1107;104760;-71
2021/01/13 05:11:45;;;;;;;;;;;;;;;0.76;71.10;98908.94;123001;1103;104660;-72
2021/01/13 05:14:12;;;;;;;;;;;;;;;0.75;70.95;98909.91;122960;1103;104577;-71
2021/01/13 05:16:50;;;;;;;;;;;;;;;0.76;70.82;98914.19;122940;1103;104615;-71
2021/01/13 05:19:38;;;;;;;;;;;;;;;0.78;70.88;98925.41;122952;1103;104667;-72
2021/01/13 05:22:07;;;;;;;;;;;;;;;0.80;70.77;98935.79;122797;1103;104751;-71
2021/01/13 05:24:40;;;;;;;;;;;;;;;0.82;70.96;98941.75;122948;1107;104606;-71
2021/01/13 05:27:13;;;;;;;;;;;;;;;0.85;70.92;98938.03;122953;1104;108463;-72
2021/01/13 05:29:38;;;;;;;;;;;;;;;0.89;71.42;98945.56;123101;1103;105188;-71
2021/01/13 05:32:09;;;;;;;;;;;;;;;0.94;70.91;98945.17;122903;1103;104570;-71
2021/01/13 05:34:36;;;;;;;;;;;;;;;0.90;70.71;98944.58;122870;1105;104648;-72
2021/01/13 05:37:32;;;;;;;;;;;;;;;0.88;70.60;98945.67;122985;1103;104599;-73
2021/01/13 05:39:57;;;;;;;;;;;;;;;0.90;71.58;98954.27;122943;1103;104615;-76
2021/01/13 05:42:23;;;;;;;;;;;;;;;0.91;71.47;98962.02;122926;1107;104648;-73
2021/01/13 05:44:49;;;;;;;;;;;;;;;0.93;71.51;98960.11;123035;1107;104593;-73
2021/01/13 05:47:27;;;;;;;;;;;;;;;0.96;71.56;98959.88;122627;1103;105105;-73
2021/01/13 05:49:54;;;;;;;;;;;;;;;1.00;71.05;98968.31;122975;1104;108361;-73
2021/01/13 05:52:20;;;;;;;;;;;;;;;1.00;71.09;98976.19;122990;1103;104558;-73
2021/01/13 05:54:45;;;;;;;;;;;;;;;1.03;71.11;98973.33;123042;1103;104663;-73
2021/01/13 05:57:13;;;;;;;;;;;;;;;1.06;70.93;98972.23;123010;1103;104692;-73
2021/01/13 05:59:39;;;;;;;;;;;;;;;1.05;71.65;98973.21;123046;1103;104596;-73
2021/01/13 06:02:05;;;;;;;;;;;;;;;1.05;70.78;98975.84;122958;1103;104583;-74
2021/01/13 06:04:32;;;;;;;;;;;;;;;1.05;71.58;98965.33;123094;1107;104651;-73
2021/01/13 06:07:17;;;;;;;;;;;;;;;1.06;71.55;98957.34;122930;1104;104679;-74
2021/01/13 06:09:43;;;;;;;;;;;;;;;1.10;71.63;98966.63;122955;1106;104647;-74
2021/01/13 06:12:16;;;;;;;;;;;;;;;1.09;71.60;98975.45;122966;1103;104568;-73
2021/01/13 06:14:42;;;;;;;;;;;;;;;1.07;71.56;98974.75;122952;1108;108418;-73
2021/01/13 06:17:17;;;;;;;;;;;;;;;1.08;71.05;98980.83;122959;1108;104675;-73
2021/01/13 06:19:46;;;;;;;;;;;;;;;1.09;71.60;98982.51;122995;1106;104596;-73
2021/01/13 06:22:12;;;;;;;;;;;;;;;1.12;71.80;98982.27;122896;1106;104599;-70
2021/01/13 06:24:38;;;;;;;;;;;;;;;1.17;71.60;98975.69;122831;1103;104581;-71
2021/01/13 06:27:17;;;;;;;;;;;;;;;1.23;71.27;98976.12;122935;1103;104661;-71
2021/01/13 06:29:52;;;;;;;;;;;;;;;1.24;71.74;98988.32;122829;1103;105185;-70
2021/01/13 06:32:19;;;;;;;;;;;;;;;1.23;71.08;99000.60;122831;1106;104752;-73
2021/01/13 06:35:04;;;;;;;;;;;;;;;1.23;71.08;98992.72;122951;1103;105057;-74
2021/01/13 06:37:38;;;;;;;;;;;;;;;1.24;71.89;99002.28;122933;1104;108306;-74
2021/01/13 06:40:11;;;;;;;;;;;;;;;1.28;71.29;99003.70;122933;1103;104685;-74
2021/01/13 06:42:37;;;;;;;;;;;;;;;1.32;71.04;99007.74;123004;1103;104670;-73
2021/01/13 06:45:03;;;;;;;;;;;;;;;1.32;72.07;99014.80;122968;1103;104692;-74
2021/01/13 06:47:28;;;;;;;;;;;;;;;1.35;71.23;99017.19;123101;1103;104641;-72
2021/01/13 06:49:54;;;;;;;;;;;;;;;1.34;71.71;99015.52;122922;1104;104676;-73
2021/01/13 06:52:30;;;;;;;;;;;;;;;1.33;71.96;99022.56;123051;1103;104951;-73
2021/01/13 06:54:57;;;;;;;;;;;;;;;1.38;72.35;99027.44;122953;1103;104576;-73
2021/01/13 06:57:28;;;;;;;;;;;;;;;1.40;72.09;99020.26;123006;1103;104621;-73
2021/01/13 06:59:54;;;;;;;;;;;;;;;1.41;71.18;99021.95;122966;1103;104655;-73
2021/01/13 07:02:33;;;;;;;;;;;;;;;1.44;71.17;99021.67;122980;1104;104590;-74
2021/01/13 07:04:59;;;;;;;;;;;;;;;1.47;72.06;99044.27;122943;1104;104571;-72
2021/01/13 07:07:25;;;;;;;;;;;;;;;1.45;71.69;99047.02;122979;1103;104605;-73
2021/01/13 07:09:53;;;;;;;;;;;;;;;1.48;71.69;99040.66;123064;1103;104625;-72
2021/01/13 07:12:28;;;;;;;;;;;;;;;1.45;71.68;99049.64;122997;1103;104695;-71
2021/01/13 07:14:55;;;;;;;;;;;;;;;1.45;72.43;99048.81;122936;1103;108432;-72
2021/01/13 07:17:21;;;;;;;;;;;;;;;1.46;71.97;99050.47;122885;1103;104644;-71
2021/01/13 07:19:48;;;;;;;;;;;;;;;1.44;71.47;99060.28;122857;1103;104586;-72
2021/01/13 07:22:15;;;;;;;;;;;;;;;1.44;71.85;99063.73;122943;1101;104612;-71
2021/01/13 07:24:41;;;;;;;;;;;;;;;1.45;72.22;99061.95;122869;1103;104683;-71
2021/01/13 07:27:07;;;;;;;;;;;;;;;1.41;72.49;99066.62;122957;1103;104609;-71
2021/01/13 07:29:33;;;;;;;;;;;;;;;1.41;72.52;99073.69;123077;1103;104922;-71
2021/01/13 07:31:58;;;;;;;;;;;;;;;1.40;72.61;99067.57;122942;1107;104660;-71
2021/01/13 07:34:31;;;;;;;;;;;;;;;1.38;72.25;99070.31;123020;1103;104651;-71
2021/01/13 07:37:01;;;;;;;;;;;;;;;1.37;71.56;99080.98;122973;1103;104651;-71
2021/01/13 07:39:47;;;;;;;;;;;;;;;1.33;72.89;99071.67;122936;1103;108326;-72
2021/01/13 07:42:30;;;;;;;;;;;;;;;1.30;72.49;99083.25;122597;1103;104785;-71
2021/01/13 07:45:03;;;;;;;;;;;;;;;1.26;72.90;99087.08;123004;1103;104649;-71
2021/01/13 07:47:30;;;;;;;;;;;;;;;1.28;72.77;99089.59;122964;1103;104594;-70
2021/01/13 07:50:06;;;;;;;;;;;;;;;1.28;72.77;99089.59;122976;1103;104648;-71
2021/01/13 07:52:36;;;;;;;;;;;;;;;1.29;72.86;99097.36;122710;1103;104580;-71
2021/01/13 07:55:02;;;;;;;;;;;;;;;1.29;72.87;99093.87;122853;1107;105062;-71
2021/01/13 07:57:31;;;;;;;;;;;;;;;1.28;72.07;99106.19;122522;1103;104718;-71
2021/01/13 07:59:59;;;;;;;;;;;;;;;1.30;72.76;99098.19;122488;1103;104615;-71
2021/01/13 08:02:31;;;;;;;;;;;;;;;1.33;72.83;99108.47;122531;1106;105148;-71
2021/01/13 08:05:13;;;;;;;;;;;;;;;1.35;72.00;99106.55;122906;1103;104593;-72
2021/01/13 08:07:42;;;;;;;;;;;;;;;1.36;72.71;99103.77;122895;1107;104605;-71
2021/01/13 08:10:08;;;;;;;;;;;;;;;1.29;72.85;99102.62;122844;1106;109241;-71
2021/01/13 08:12:36;;;;;;;;;;;;;;;1.26;72.28;99109.91;123002;1103;104577;-73
2021/01/13 08:15:05;;;;;;;;;;;;;;;1.20;71.98;99118.28;122769;1103;104570;-72
2021/01/13 08:17:33;;;;;;;;;;;;;;;1.21;71.88;99117.31;122939;1103;104568;-73
2021/01/13 08:20:22;;;;;;;;;;;;;;;1.18;72.31;99123.65;122910;1103;108421;-73
2021/01/13 08:23:20;;;;;;;;;;;;;;;1.17;72.33;99120.20;122943;1103;104600;-73
2021/01/13 08:25:53;;;;;;;;;;;;;;;1.12;71.13;99135.47;122982;1103;104692;-73
2021/01/13 08:28:20;;;;;;;;;;;;;;;1.09;71.84;99127.82;122950;1103;104741;-72
2021/01/13 08:30:48;;;;;;;;;;;;;;;1.12;71.69;99132.02;122971;1103;104704;-72
2021/01/13 08:33:20;;;;;;;;;;;;;;;1.09;71.17;99134.88;122799;1103;105028;-73
2021/01/13 08:35:58;;;;;;;;;;;;;;;1.07;70.81;99128.91;122901;1103;104570;-72
2021/01/13 08:38:25;;;;;;;;;;;;;;;1.02;71.50;99134.53;122974;1103;105124;-73
2021/01/13 08:40:50;;;;;;;;;;;;;;;1.02;71.82;99131.91;123098;1103;104638;-72
2021/01/13 08:43:17;;;;;;;;;;;;;;;1.09;70.92;99135.70;123027;1102;104581;-72
2021/01/13 08:45:44;;;;;;;;;;;;;;;1.13;71.28;99144.19;123004;1105;104667;-73
2021/01/13 08:48:14;;;;;;;;;;;;;;;1.16;70.40;99154.47;123010;1103;104596;-71
2021/01/13 08:50:40;;;;;;;;;;;;;;;1.17;71.12;99164.00;122924;1107;104602;-72
2021/01/13 08:53:06;;;;;;;;;;;;;;;1.16;71.22;99154.47;122971;1103;104647;-72
2021/01/13 08:55:32;;;;;;;;;;;;;;;1.16;70.91;99164.98;123061;1103;105082;-71
2021/01/13 08:58:08;;;;;;;;;;;;;;;1.22;71.32;99163.66;122982;1107;104596;-72
2021/01/13 09:00:35;;;;;;;;;;;;;;;1.28;71.23;99157.92;122971;1103;104606;-71
2021/01/13 09:03:02;;;;;;;;;;;;;;;1.41;70.71;99155.99;122941;1103;104925;-72
2021/01/13 09:05:32;;;;;;;;;;;;;;;1.52;71.32;99147.23;122927;1103;104648;-72
2021/01/13 09:07:59;;;;;;;;;;;;;;;1.59;71.08;99147.59;122965;1103;104576;-72
2021/01/13 09:10:46;;;;;;;;;;;;;;;1.68;70.60;99146.86;123004;1103;104561;-73
2021/01/13 09:13:30;;;;;;;;;;;;;;;1.75;70.78;99142.75;122971;1103;104692;-72
2021/01/13 09:15:56;;;;;;;;;;;;;;;1.83;70.11;99139.50;122966;1103;108387;-72
2021/01/13 09:18:23;;;;;;;;;;;;;;;1.89;70.16;99134.59;122959;1103;104686;-73
2021/01/13 09:20:50;;;;;;;;;;;;;;;1.99;71.25;99136.47;122992;1103;104608;-73
2021/01/13 09:23:21;;;;;;;;;;;;;;;2.07;70.82;99142.76;123077;1106;104615;-73
2021/01/13 09:25:51;;;;;;;;;;;;;;;2.14;69.83;99136.04;122966;1106;104682;-73
2021/01/13 09:28:18;;;;;;;;;;;;;;;2.22;70.20;99145.11;122935;1102;108355;-73
2021/01/13 09:30:45;;;;;;;;;;;;;;;2.26;70.56;99139.45;122977;1103;105031;-72
2021/01/13 09:33:14;;;;;;;;;;;;;;;2.28;71.06;99142.78;122983;1103;104603;-72
2021/01/13 09:35:40;;;;;;;;;;;;;;;2.33;70.51;99140.61;122941;1106;104629;-73
2021/01/13 09:38:36;;;;;;;;;;;;;;;2.35;70.22;99137.86;123029;1101;104571;-74
2021/01/13 09:41:02;;;;;;;;;;;;;;;2.39;71.21;99138.41;122817;1103;104568;-73
2021/01/13 09:43:41;;;;;;;;;;;;;;;2.39;71.21;99134.00;122943;1103;104567;-75
2021/01/13 09:46:22;;;;;;;;;;;;;;;2.38;71.27;99142.02;122967;1103;104690;-74
2021/01/13 09:48:58;;;;;;;;;;;;;;;2.34;70.31;99129.11;122907;1106;108334;-73
2021/01/13 09:51:24;;;;;;;;;;;;;;;2.33;70.28;99132.72;122917;1103;105025;-73
2021/01/13 09:53:50;;;;;;;;;;;;;;;2.37;69.83;99141.20;122990;1103;104580;-73
2021/01/13 09:56:16;;;;;;;;;;;;;;;2.38;71.06;99127.05;123033;1106;104596;-73
2021/01/13 09:58:44;;;;;;;;;;;;;;;2.41;71.27;99137.34;122958;1108;104615;-74
2021/01/13 10:01:09;;;;;;;;;;;;;;;2.40;70.65;99130.39;122962;1104;108306;-74
2021/01/13 10:03:35;;;;;;;;;;;;;;;2.38;71.03;99131.50;122986;1103;104732;-74
2021/01/13 10:06:01;;;;;;;;;;;;;;;2.33;70.37;99130.08;123054;1103;104670;-74
2021/01/13 10:08:30;;;;;;;;;;;;;;;2.31;70.31;99132.02;123021;1103;104695;-72
2021/01/13 10:10:57;;;;;;;;;;;;;;;2.38;70.97;99132.32;122978;1103;104689;-71
2021/01/13 10:13:22;;;;;;;;;;;;;;;2.47;70.43;99131.55;122975;1104;104571;-73
2021/01/13 10:15:49;;;;;;;;;;;;;;;2.55;70.05;99128.27;123014;1103;104577;-72
2021/01/13 10:18:15;;;;;;;;;;;;;;;2.57;70.16;99128.98;122933;1103;104602;-73
2021/01/13 10:20:40;;;;;;;;;;;;;;;2.67;70.87;99143.02;122990;1103;104596;-73
2021/01/13 10:23:07;;;;;;;;;;;;;;;2.68;69.03;99135.98;123054;1103;104603;-73
2021/01/13 10:25:35;;;;;;;;;;;;;;;2.68;68.83;99128.91;122962;1103;104571;-72
2021/01/13 10:28:01;;;;;;;;;;;;;;;2.77;69.92;99129.08;122951;1103;108416;-72
2021/01/13 10:30:27;;;;;;;;;;;;;;;2.84;70.20;99130.23;122916;1103;104586;-73
2021/01/13 10:32:54;;;;;;;;;;;;;;;2.86;69.46;99133.56;123048;1103;104666;-72
2021/01/13 10:35:21;;;;;;;;;;;;;;;2.93;69.05;99130.27;122990;1103;104596;-73
2021/01/13 10:37:53;;;;;;;;;;;;;;;2.95;69.48;99133.61;122957;1103;104599;-73
2021/01/13 10:40:20;;;;;;;;;;;;;;;2.99;68.07;99144.73;122772;1103;107675;-76
2021/01/13 10:42:48;;;;;;;;;;;;;;;2.97;68.22;99128.22;122857;1103;104936;-74
2021/01/13 10:45:14;;;;;;;;;;;;;;;2.93;68.42;99134.72;122989;1103;104641;-74
2021/01/13 10:47:45;;;;;;;;;;;;;;;2.94;68.49;99144.27;122942;1103;104663;-73
2021/01/13 10:50:13;;;;;;;;;;;;;;;2.99;69.71;99136.82;122966;1103;108405;-72
2021/01/13 10:52:39;;;;;;;;;;;;;;;3.00;69.12;99133.20;122962;1107;104760;-74
2021/01/13 10:55:05;;;;;;;;;;;;;;;3.03;68.70;99129.48;123001;1103;104561;-74
2021/01/13 10:57:31;;;;;;;;;;;;;;;3.12;68.96;99137.43;122997;1103;104603;-73
2021/01/13 11:00:07;;;;;;;;;;;;;;;3.18;68.56;99130.80;122986;1103;105111;-73
2021/01/13 11:02:33;;;;;;;;;;;;;;;3.24;68.73;99129.42;122937;1103;108367;-73
2021/01/13 11:05:00;;;;;;;;;;;;;;;3.22;68.43;99137.46;122961;1106;104628;-73
2021/01/13 11:07:35;;;;;;;;;;;;;;;3.20;68.65;99126.22;123013;1103;105028;-73
2021/01/13 11:10:02;;;;;;;;;;;;;;;3.23;69.29;99118.02;122972;1103;104664;-74
2021/01/13 11:12:27;;;;;;;;;;;;;;;3.27;68.61;99118.59;122960;1103;104596;-73
2021/01/13 11:14:53;;;;;;;;;;;;;;;3.33;69.27;99120.72;123078;1103;104557;-73
2021/01/13 11:17:26;;;;;;;;;;;;;;;3.40;69.50;99118.36;123035;1107;108354;-73
2021/01/13 11:19:51;;;;;;;;;;;;;;;3.46;69.64;99112.54;122985;1103;104590;-73
2021/01/13 11:22:16;;;;;;;;;;;;;;;3.51;69.28;99105.89;123004;1103;105022;-73
2021/01/13 11:24:44;;;;;;;;;;;;;;;3.54;68.55;99104.77;123057;1107;104695;-73
2021/01/13 11:27:10;;;;;;;;;;;;;;;3.54;67.78;99107.41;123049;1103;104586;-74
2021/01/13 11:29:38;;;;;;;;;;;;;;;3.47;68.25;99101.86;122974;1106;104660;-74
2021/01/13 11:32:05;;;;;;;;;;;;;;;3.38;67.81;99100.03;122991;1103;104754;-73
2021/01/13 11:34:31;;;;;;;;;;;;;;;3.29;67.34;99111.38;123025;1103;104573;-74
2021/01/13 11:37:13;;;;;;;;;;;;;;;3.23;69.17;99111.92;123037;1103;104596;-72
2021/01/13 11:39:46;;;;;;;;;;;;;;;3.19;68.83;99118.44;122972;1103;104670;-73
2021/01/13 11:42:17;;;;;;;;;;;;;;;3.13;69.55;99110.09;122730;1103;108383;-72
2021/01/13 11:44:58;;;;;;;;;;;;;;;3.12;68.27;99105.80;122632;1103;104597;-74
2021/01/13 11:47:31;;;;;;;;;;;;;;;3.17;68.11;99100.11;122878;1103;104679;-75
2021/01/13 11:49:59;;;;;;;;;;;;;;;3.24;69.71;99101.25;122909;1103;104648;-72
2021/01/13 11:52:32;;;;;;;;;;;;;;;3.27;68.35;99103.63;122806;1107;108805;-72
2021/01/13 11:54:57;;;;;;;;;;;;;;;3.21;69.04;99100.69;122977;1108;104986;-75
2021/01/13 11:57:27;;;;;;;;;;;;;;;3.09;69.29;99103.42;123008;1103;104641;-73
2021/01/13 12:00:10;;;;;;;;;;;;;;;3.04;68.65;99095.10;122989;1103;104667;-72
2021/01/13 12:02:38;;;;;;;;;;;;;;;2.93;68.51;99097.83;122945;1108;108316;-74
2021/01/13 12:05:04;;;;;;;;;;;;;;;2.89;69.04;99105.16;122966;1103;104574;-73
2021/01/13 12:07:30;;;;;;;;;;;;;;;2.85;67.99;99097.63;123043;1104;104588;-73
2021/01/13 12:10:11;;;;;;;;;;;;;;;2.83;68.71;99102.20;123023;1103;104590;-72
2021/01/13 12:12:37;;;;;;;;;;;;;;;2.86;68.33;99109.86;122962;1103;104538;-74
2021/01/13 12:15:13;;;;;;;;;;;;;;;2.87;68.20;99106.27;123043;1103;104726;-73
2021/01/13 12:17:51;;;;;;;;;;;;;;;2.80;68.20;99110.39;122944;1103;104577;-73
2021/01/13 12:20:32;;;;;;;;;;;;;;;2.75;68.78;99108.98;123007;1103;104756;-73
2021/01/13 12:22:58;;;;;;;;;;;;;;;2.77;68.22;99105.38;123010;1103;104596;-73
2021/01/13 12:25:26;;;;;;;;;;;;;;;2.75;68.33;99108.98;122964;1103;104612;-74
2021/01/13 12:28:05;;;;;;;;;;;;;;;2.77;67.89;99097.47;123035;1103;104628;-70
2021/01/13 12:30:31;;;;;;;;;;;;;;;2.80;68.47;99099.85;122999;1103;105081;-73
2021/01/13 12:32:58;;;;;;;;;;;;;;;2.81;68.72;99112.05;123012;1103;104667;-73
2021/01/13 12:35:27;;;;;;;;;;;;;;;2.81;68.33;99112.90;123073;1103;104577;-73
2021/01/13 12:37:52;;;;;;;;;;;;;;;2.81;67.93;99112.90;122964;1104;108374;-72
2021/01/13 12:40:31;;;;;;;;;;;;;;;2.79;68.73;99103.44;123017;1103;104689;-73
2021/01/13 12:43:09;;;;;;;;;;;;;;;2.74;68.54;99101.21;123020;1103;104571;-73
2021/01/13 12:45:34;;;;;;;;;;;;;;;2.65;68.39;99094.09;122656;1107;104610;-72
2021/01/13 12:48:00;;;;;;;;;;;;;;;2.62;68.02;99100.47;122611;1103;104597;-72